AirNav   Everest Fuels
 
 1791 users online  

50OR Goering Ranches / Chocheta Estates Airport
Bend, Oregon, USA

GOING TO BEND?


FAA INFORMATION EFFECTIVE 14 JULY 2022

Location

FAA Identifier: 50OR
Lat/Long: 44-05-50.4410N 120-56-50.0680W
44-05.840683N 120-56.834467W
44.0973447,-120.9472411
(estimated)
Elevation: 3450 ft. / 1051.6 m (surveyed)
Variation: 18E (1985)
From city: 18 miles ENE of BEND, OR
Time zone: UTC -7 (UTC -8 during Standard Time)
Zip code: 97753

Airport Operations

Airport use: Private use, PERSONAL USE.
Activation date: 07/1984
Control tower: no
ARTCC: SEATTLE CENTER
FSS: MC MINNVILLE FLIGHT SERVICE STATION
Attendance: MON-FRI 24 HOURS/DAY
Wind indicator: yes
Segmented circle: no

Airport Communications

WX AWOS-3 at BDN (11 nm W): 134.425 (541-382-1477)
WX AWOS-3PT at S39 (12 nm N): 118.325 (541-447-4060)
WX ASOS at RDM (13 nm NW): 119.025 (541-504-8743)

Nearby radio navigation aids

VOR radial/distance  VOR name  Freq  Var
DSDr103/17.9DESCHUTES VORTAC117.6018E

Airport Services

Runway Information

Runway 17/35

Dimensions: 5500 x 60 ft. / 1676 x 18 m
Surface: gravel, in good condition
RUNWAY 17  RUNWAY 35
Traffic pattern: leftright
Obstructions: nonefence

Airport Ownership and Management from official FAA records

Ownership: Privately-owned
Owner: LINDA REVOCABLE LIVING TRUST
8101 SW WILLARD ROAD
BEND, OR 97701
Phone (541) 389-3046
Manager: RANDY GOERING
8101 SW WILLARD ROAD
BEND, OR 97701
Phone 541-388-1323
FAX 541-389-7431

Airport Operational Statistics

Aircraft based on the field: 4
Single engine airplanes: 3
Multi engine airplanes: 1
    

Additional Remarks

FOR CD CTC SEATTLE ARTCC AT 253-351-3694.

Instrument Procedures

There are no published instrument procedures at 50OR.

Some nearby airports with instrument procedures:

KBDN - Bend Municipal Airport (11 nm W)
S39 - Prineville Airport (12 nm N)
KRDM - Roberts Field Airport (13 nm NW)
S21 - Sunriver Airport (26 nm SW)
S33 - Madras Municipal Airport (36 nm N)
 
Loc | Ops | Rwys | IFR | FBO | Links
Com | Nav | Svcs | Stats | Notes
Area around 50OR (Goering Ranches / Chocheta Estates Airport)
 
Road maps at: MapQuest Bing Google
 
Aerial photo
WARNING: Photo may not be current or correct
Aerial photo of 50OR (Goering Ranches / Chocheta Estates Airport)
Photo taken 01-Jun-2014

Do you have a better or more recent aerial photo of Goering Ranches / Chocheta Estates Airport that you would like to share? If so, please send us your photo.

 
Sectional chart

 
Airport distance calculator
Flying to Goering Ranches / Chocheta Estates Airport? Find the distance to fly.

From to 50OR

Sunrise and sunset
Times for 10-Aug-2022
 Local
(UTC-7)
 Zulu
(UTC)
Morning civil twilight05:3112:31
Sunrise06:0313:03
Sunset20:1503:15
Evening civil twilight20:4703:47

Current date and time
Zulu (UTC)  10-Aug-2022 15:36:48
Local (UTC-7)  10-Aug-2022 08:36:48
 
METAR
KBDN 
11nm W 
101515Z AUTO 13004KT 10SM CLR 19/12 A3009 RMK AO2
KS39 
12nm N 
101515Z AUTO 15007KT 10SM CLR 21/15 A3007 RMK AO2
KRDM 
13nm NW 
101456Z 18008KT 10SM CLR 21/14 A3005 RMK AO2 SLP150 T02060144 53013
TAF
KBDN 
11nm W 
101121Z 1012/1112 VRB05KT P6SM SKC FM101900 25010KT P6SM SKC FM102100 30015G25KT P6SM FEW150 FM110400 30010KT P6SM SKC FM110700 VRB05KT P6SM SKC
KRDM 
13nm NW 
101330Z 1014/1112 17005KT P6SM SKC TEMPO 1014/1016 2SM BR SCT001 FM101900 27010KT P6SM SKC FM102100 29015G25KT P6SM FEW150 FM110400 32012KT P6SM SKC FM110600 VRB05KT P6SM SKC
NOTAMs
Click for the latest NOTAMs
NOTAMs are issued by the DoD/FAA and will open in a separate window not controlled by AirNav.

 

 
 

Would you like to see your business listed on this page?

 If your business provides an interesting product or service to pilots, flight crews, aircraft, or users of the Goering Ranches / Chocheta Estates Airport, you should consider listing it here.  To start the listing process, click on the button below
 
Add a business
 

Other Pages about Goering Ranches / Chocheta Estates Airport

Update a link
 
Copyright © AirNav, LLC. All rights reserved. Privacy Policy  Contact